sensor_id;sensor_type;location;lat;lon;timestamp;pressure;altitude;pressure_sealevel;temperature;humidity
6851;BME280;3464;42.728;23.296;2023-04-20T00:01:54;94890.08;;;15.94;63.20
6851;BME280;3464;42.728;23.296;2023-04-20T00:04:21;94889.55;;;15.75;63.23
6851;BME280;3464;42.728;23.296;2023-04-20T00:06:49;94888.48;;;15.63;63.21
6851;BME280;3464;42.728;23.296;2023-04-20T00:09:15;94889.80;;;15.60;63.76
6851;BME280;3464;42.728;23.296;2023-04-20T00:11:42;94885.84;;;15.70;63.29
6851;BME280;3464;42.728;23.296;2023-04-20T00:14:10;94888.60;;;15.81;63.25
6851;BME280;3464;42.728;23.296;2023-04-20T00:16:38;94866.79;;;15.71;62.95
6851;BME280;3464;42.728;23.296;2023-04-20T00:19:07;94875.54;;;15.78;62.96
6851;BME280;3464;42.728;23.296;2023-04-20T00:21:34;94881.17;;;15.46;63.34
6851;BME280;3464;42.728;23.296;2023-04-20T00:24:08;94887.02;;;15.50;63.11
6851;BME280;3464;42.728;23.296;2023-04-20T00:26:44;94888.34;;;15.19;63.35
6851;BME280;3464;42.728;23.296;2023-04-20T00:29:12;94886.72;;;15.14;63.60
6851;BME280;3464;42.728;23.296;2023-04-20T00:31:42;94884.45;;;15.24;63.54
6851;BME280;3464;42.728;23.296;2023-04-20T00:34:09;94882.52;;;15.67;62.67
6851;BME280;3464;42.728;23.296;2023-04-20T00:36:36;94869.61;;;15.56;63.05
6851;BME280;3464;42.728;23.296;2023-04-20T00:39:02;94875.80;;;15.10;63.34
6851;BME280;3464;42.728;23.296;2023-04-20T00:41:29;94875.23;;;15.48;63.61
6851;BME280;3464;42.728;23.296;2023-04-20T00:43:56;94880.03;;;14.81;64.35
6851;BME280;3464;42.728;23.296;2023-04-20T00:46:22;94878.70;;;14.84;64.64
6851;BME280;3464;42.728;23.296;2023-04-20T00:48:50;94867.89;;;15.02;64.39
6851;BME280;3464;42.728;23.296;2023-04-20T00:51:17;94876.24;;;15.38;63.21
6851;BME280;3464;42.728;23.296;2023-04-20T00:53:43;94873.95;;;15.48;62.67
6851;BME280;3464;42.728;23.296;2023-04-20T00:56:12;94873.20;;;15.15;63.67
6851;BME280;3464;42.728;23.296;2023-04-20T00:58:38;94872.51;;;15.04;63.82
6851;BME280;3464;42.728;23.296;2023-04-20T01:01:08;94867.38;;;15.35;63.70
6851;BME280;3464;42.728;23.296;2023-04-20T01:03:34;94868.67;;;15.07;63.98
6851;BME280;3464;42.728;23.296;2023-04-20T01:06:03;94876.82;;;15.26;63.85
6851;BME280;3464;42.728;23.296;2023-04-20T01:08:33;94872.00;;;15.09;64.20
6851;BME280;3464;42.728;23.296;2023-04-20T01:11:01;94867.50;;;15.55;63.62
6851;BME280;3464;42.728;23.296;2023-04-20T01:13:30;94870.62;;;15.17;64.17
6851;BME280;3464;42.728;23.296;2023-04-20T01:16:00;94870.73;;;15.10;64.09
6851;BME280;3464;42.728;23.296;2023-04-20T01:18:51;94868.56;;;15.12;63.85
6851;BME280;3464;42.728;23.296;2023-04-20T01:21:19;94864.55;;;14.99;64.46
6851;BME280;3464;42.728;23.296;2023-04-20T01:23:48;94866.28;;;15.25;63.99
6851;BME280;3464;42.728;23.296;2023-04-20T01:26:17;94868.98;;;15.67;63.02
6851;BME280;3464;42.728;23.296;2023-04-20T01:28:46;94864.33;;;15.66;62.90
6851;BME280;3464;42.728;23.296;2023-04-20T01:31:13;94863.79;;;15.49;63.29
6851;BME280;3464;42.728;23.296;2023-04-20T01:33:42;94864.61;;;15.22;63.55
6851;BME280;3464;42.728;23.296;2023-04-20T01:36:09;94854.98;;;14.89;63.76
6851;BME280;3464;42.728;23.296;2023-04-20T01:38:38;94853.16;;;14.98;64.15
6851;BME280;3464;42.728;23.296;2023-04-20T01:41:06;94847.52;;;15.08;63.86
6851;BME280;3464;42.728;23.296;2023-04-20T01:43:33;94845.00;;;14.79;64.23
6851;BME280;3464;42.728;23.296;2023-04-20T01:46:00;94846.05;;;14.34;64.82
6851;BME280;3464;42.728;23.296;2023-04-20T01:48:26;94841.45;;;14.61;64.42
6851;BME280;3464;42.728;23.296;2023-04-20T01:50:53;94842.88;;;14.49;64.80
6851;BME280;3464;42.728;23.296;2023-04-20T01:53:21;94842.87;;;14.15;65.41
6851;BME280;3464;42.728;23.296;2023-04-20T01:55:50;94848.23;;;13.88;66.38
6851;BME280;3464;42.728;23.296;2023-04-20T01:58:18;94848.54;;;13.59;66.98
6851;BME280;3464;42.728;23.296;2023-04-20T02:00:47;94850.30;;;13.93;67.01
6851;BME280;3464;42.728;23.296;2023-04-20T02:03:15;94841.20;;;13.75;67.33
6851;BME280;3464;42.728;23.296;2023-04-20T02:05:42;94846.00;;;13.58;67.44
6851;BME280;3464;42.728;23.296;2023-04-20T02:08:08;94844.00;;;13.89;66.65
6851;BME280;3464;42.728;23.296;2023-04-20T02:10:36;94843.56;;;13.91;66.69
6851;BME280;3464;42.728;23.296;2023-04-20T02:13:03;94846.08;;;13.92;66.95
6851;BME280;3464;42.728;23.296;2023-04-20T02:15:31;94840.69;;;13.83;66.75
6851;BME280;3464;42.728;23.296;2023-04-20T02:17:58;94849.00;;;13.96;66.78
6851;BME280;3464;42.728;23.296;2023-04-20T02:20:25;94848.74;;;13.79;66.79
6851;BME280;3464;42.728;23.296;2023-04-20T02:22:53;94849.61;;;14.16;66.45
6851;BME280;3464;42.728;23.296;2023-04-20T02:25:19;94852.03;;;13.88;66.72
6851;BME280;3464;42.728;23.296;2023-04-20T02:27:47;94849.80;;;13.59;67.44
6851;BME280;3464;42.728;23.296;2023-04-20T02:30:14;94852.98;;;13.78;67.53
6851;BME280;3464;42.728;23.296;2023-04-20T02:32:40;94848.52;;;14.00;66.86
6851;BME280;3464;42.728;23.296;2023-04-20T02:35:07;94845.16;;;14.00;66.28
6851;BME280;3464;42.728;23.296;2023-04-20T02:37:34;94850.52;;;14.08;66.15
6851;BME280;3464;42.728;23.296;2023-04-20T02:40:01;94851.45;;;14.39;65.52
6851;BME280;3464;42.728;23.296;2023-04-20T02:42:29;94846.19;;;14.18;65.52
6851;BME280;3464;42.728;23.296;2023-04-20T02:44:56;94840.80;;;14.12;65.30
6851;BME280;3464;42.728;23.296;2023-04-20T02:47:22;94839.55;;;14.44;65.11
6851;BME280;3464;42.728;23.296;2023-04-20T02:49:49;94839.05;;;14.81;64.34
6851;BME280;3464;42.728;23.296;2023-04-20T02:52:16;94841.29;;;14.73;64.30
6851;BME280;3464;42.728;23.296;2023-04-20T02:54:44;94843.10;;;14.65;64.19
6851;BME280;3464;42.728;23.296;2023-04-20T02:57:10;94848.27;;;14.22;65.06
6851;BME280;3464;42.728;23.296;2023-04-20T02:59:38;94849.65;;;14.11;65.79
6851;BME280;3464;42.728;23.296;2023-04-20T03:02:05;94849.72;;;14.41;65.34
6851;BME280;3464;42.728;23.296;2023-04-20T03:04:35;94847.20;;;14.73;64.47
6851;BME280;3464;42.728;23.296;2023-04-20T03:07:04;94843.10;;;14.65;64.75
6851;BME280;3464;42.728;23.296;2023-04-20T03:09:34;94844.52;;;14.52;64.65
6851;BME280;3464;42.728;23.296;2023-04-20T03:12:01;94845.36;;;14.83;64.14
6851;BME280;3464;42.728;23.296;2023-04-20T03:14:27;94840.60;;;14.61;64.01
6851;BME280;3464;42.728;23.296;2023-04-20T03:16:55;94845.30;;;14.87;63.66
6851;BME280;3464;42.728;23.296;2023-04-20T03:19:22;94843.88;;;14.68;63.54
6851;BME280;3464;42.728;23.296;2023-04-20T03:21:48;94845.37;;;14.52;64.23
6851;BME280;3464;42.728;23.296;2023-04-20T03:24:16;94844.83;;;14.90;63.43
6851;BME280;3464;42.728;23.296;2023-04-20T03:26:43;94847.59;;;14.74;63.82
6851;BME280;3464;42.728;23.296;2023-04-20T03:29:12;94845.94;;;15.01;63.16
6851;BME280;3464;42.728;23.296;2023-04-20T03:31:39;94848.52;;;14.98;63.18
6851;BME280;3464;42.728;23.296;2023-04-20T03:34:07;94848.64;;;14.88;63.47
6851;BME280;3464;42.728;23.296;2023-04-20T03:36:34;94846.39;;;14.70;63.30
6851;BME280;3464;42.728;23.296;2023-04-20T03:39:01;94845.30;;;14.87;62.92
6851;BME280;3464;42.728;23.296;2023-04-20T03:41:27;94846.45;;;14.95;62.61
6851;BME280;3464;42.728;23.296;2023-04-20T03:43:55;94852.23;;;14.43;63.56
6851;BME280;3464;42.728;23.296;2023-04-20T03:46:31;94846.69;;;14.78;63.79
6851;BME280;3464;42.728;23.296;2023-04-20T03:49:29;94850.61;;;15.00;63.38
6851;BME280;3464;42.728;23.296;2023-04-20T04:01:59;94855.33;;;14.66;63.20
6851;BME280;3464;42.728;23.296;2023-04-20T04:07:50;94854.69;;;15.37;61.40
6851;BME280;3464;42.728;23.296;2023-04-20T04:10:19;94855.15;;;15.33;61.80
6851;BME280;3464;42.728;23.296;2023-04-20T04:12:59;94857.13;;;15.44;61.54
6851;BME280;3464;42.728;23.296;2023-04-20T04:15:28;94860.31;;;14.72;62.85
6851;BME280;3464;42.728;23.296;2023-04-20T04:17:56;94870.06;;;14.98;62.76
6851;BME280;3464;42.728;23.296;2023-04-20T04:20:25;94861.91;;;15.06;62.71
6851;BME280;3464;42.728;23.296;2023-04-20T04:23:03;94861.23;;;15.23;61.97
6851;BME280;3464;42.728;23.296;2023-04-20T04:25:41;94864.70;;;15.44;61.38
6851;BME280;3464;42.728;23.296;2023-04-20T04:31:27;94867.50;;;16.02;60.69
6851;BME280;3464;42.728;23.296;2023-04-20T04:34:04;94867.40;;;15.85;60.73
6851;BME280;3464;42.728;23.296;2023-04-20T04:40:01;94869.72;;;15.72;60.96
6851;BME280;3464;42.728;23.296;2023-04-20T04:42:28;94871.23;;;15.32;61.11
6851;BME280;3464;42.728;23.296;2023-04-20T04:44:56;94873.44;;;15.25;61.37
6851;BME280;3464;42.728;23.296;2023-04-20T04:47:24;94871.81;;;15.74;60.65
6851;BME280;3464;42.728;23.296;2023-04-20T04:49:50;94876.70;;;15.33;60.88
6851;BME280;3464;42.728;23.296;2023-04-20T04:52:17;94878.87;;;14.71;62.09
6851;BME280;3464;42.728;23.296;2023-04-20T04:54:45;94872.05;;;15.06;61.64
6851;BME280;3464;42.728;23.296;2023-04-20T04:57:12;94882.36;;;15.23;60.95
6851;BME280;3464;42.728;23.296;2023-04-20T04:59:38;94881.96;;;15.74;60.38
6851;BME280;3464;42.728;23.296;2023-04-20T05:02:07;94878.95;;;15.77;59.89
6851;BME280;3464;42.728;23.296;2023-04-20T05:04:37;94886.59;;;15.50;60.05
6851;BME280;3464;42.728;23.296;2023-04-20T05:07:05;94892.66;;;15.42;60.69
6851;BME280;3464;42.728;23.296;2023-04-20T05:09:32;94884.50;;;15.97;59.92
6851;BME280;3464;42.728;23.296;2023-04-20T05:11:59;94889.95;;;16.00;59.39
6851;BME280;3464;42.728;23.296;2023-04-20T05:14:32;94890.40;;;16.44;58.62
6851;BME280;3464;42.728;23.296;2023-04-20T05:17:00;94878.52;;;16.22;59.17
6851;BME280;3464;42.728;23.296;2023-04-20T05:19:30;94890.55;;;16.36;58.91
6851;BME280;3464;42.728;23.296;2023-04-20T05:21:58;94888.38;;;16.39;59.17
6851;BME280;3464;42.728;23.296;2023-04-20T05:24:25;94886.77;;;16.56;58.44
6851;BME280;3464;42.728;23.296;2023-04-20T05:26:52;94888.89;;;16.97;57.58
6851;BME280;3464;42.728;23.296;2023-04-20T05:29:19;94891.51;;;16.08;58.55
6851;BME280;3464;42.728;23.296;2023-04-20T05:31:47;94893.79;;;16.20;58.93
6851;BME280;3464;42.728;23.296;2023-04-20T05:34:15;94884.51;;;16.19;59.09
6851;BME280;3464;42.728;23.296;2023-04-20T05:36:43;94891.30;;;16.39;58.70
6851;BME280;3464;42.728;23.296;2023-04-20T05:39:12;94899.20;;;16.49;58.69
6851;BME280;3464;42.728;23.296;2023-04-20T05:41:40;94894.09;;;16.71;58.57
6851;BME280;3464;42.728;23.296;2023-04-20T05:44:09;94893.84;;;16.18;59.34
6851;BME280;3464;42.728;23.296;2023-04-20T05:46:35;94903.08;;;16.23;59.64
6851;BME280;3464;42.728;23.296;2023-04-20T05:49:02;94906.23;;;16.35;59.67
6851;BME280;3464;42.728;23.296;2023-04-20T05:51:29;94896.84;;;16.39;60.14
6851;BME280;3464;42.728;23.296;2023-04-20T05:53:59;94899.53;;;16.74;59.42
6851;BME280;3464;42.728;23.296;2023-04-20T05:56:25;94902.41;;;16.57;59.53
6851;BME280;3464;42.728;23.296;2023-04-20T06:24:52;94898.59;;;17.17;59.96
6851;BME280;3464;42.728;23.296;2023-04-20T06:37:30;94909.97;;;16.81;60.33
6851;BME280;3464;42.728;23.296;2023-04-20T06:40:15;94914.98;;;16.42;61.23
6851;BME280;3464;42.728;23.296;2023-04-20T06:46:20;94916.57;;;16.70;61.80
6851;BME280;3464;42.728;23.296;2023-04-20T06:48:54;94926.13;;;16.34;62.35
6851;BME280;3464;42.728;23.296;2023-04-20T06:51:27;94921.47;;;16.57;61.98
6851;BME280;3464;42.728;23.296;2023-04-20T06:54:00;94925.87;;;16.90;61.10
6851;BME280;3464;42.728;23.296;2023-04-20T06:56:33;94924.09;;;16.53;61.99
6851;BME280;3464;42.728;23.296;2023-04-20T06:59:08;94926.19;;;16.75;61.70
6851;BME280;3464;42.728;23.296;2023-04-20T07:01:36;94923.04;;;16.83;61.27
6851;BME280;3464;42.728;23.296;2023-04-20T07:04:03;94927.91;;;16.94;60.96
6851;BME280;3464;42.728;23.296;2023-04-20T07:06:30;94926.00;;;16.84;60.99
6851;BME280;3464;42.728;23.296;2023-04-20T07:08:57;94933.64;;;17.61;59.95
6851;BME280;3464;42.728;23.296;2023-04-20T07:11:24;94928.98;;;17.60;59.30
6851;BME280;3464;42.728;23.296;2023-04-20T07:13:54;94931.70;;;18.36;58.43
6851;BME280;3464;42.728;23.296;2023-04-20T07:16:23;94927.50;;;18.52;57.77
6851;BME280;3464;42.728;23.296;2023-04-20T07:18:49;94931.70;;;18.53;57.36
6851;BME280;3464;42.728;23.296;2023-04-20T07:21:16;94923.55;;;18.23;56.89
6851;BME280;3464;42.728;23.296;2023-04-20T07:23:43;94933.81;;;17.88;57.63
6851;BME280;3464;42.728;23.296;2023-04-20T07:26:10;94932.38;;;17.94;58.19
6851;BME280;3464;42.728;23.296;2023-04-20T07:28:37;94926.50;;;18.72;56.76
6851;BME280;3464;42.728;23.296;2023-04-20T07:31:04;94928.00;;;19.22;55.16
6851;BME280;3464;42.728;23.296;2023-04-20T07:33:30;94929.21;;;19.52;54.83
6851;BME280;3464;42.728;23.296;2023-04-20T07:35:58;94921.78;;;20.48;53.77
6851;BME280;3464;42.728;23.296;2023-04-20T07:38:25;94913.56;;;21.10;51.89
6851;BME280;3464;42.728;23.296;2023-04-20T07:40:57;94916.75;;;22.02;49.99
6851;BME280;3464;42.728;23.296;2023-04-20T07:43:24;94910.02;;;23.17;48.17
6851;BME280;3464;42.728;23.296;2023-04-20T07:46:00;94910.30;;;23.01;46.92
6851;BME280;3464;42.728;23.296;2023-04-20T07:48:30;94908.97;;;23.21;46.90
6851;BME280;3464;42.728;23.296;2023-04-20T07:51:00;94904.64;;;24.20;45.70
6851;BME280;3464;42.728;23.296;2023-04-20T07:53:27;94907.70;;;24.77;43.30
6851;BME280;3464;42.728;23.296;2023-04-20T07:55:53;94902.51;;;25.26;42.77
6851;BME280;3464;42.728;23.296;2023-04-20T07:58:20;94905.22;;;24.00;43.40
6851;BME280;3464;42.728;23.296;2023-04-20T08:00:46;94907.27;;;23.48;43.95
6851;BME280;3464;42.728;23.296;2023-04-20T08:03:14;94904.08;;;22.58;45.90
6851;BME280;3464;42.728;23.296;2023-04-20T08:05:41;94911.20;;;21.91;46.46
6851;BME280;3464;42.728;23.296;2023-04-20T08:08:08;94909.23;;;22.28;46.03
6851;BME280;3464;42.728;23.296;2023-04-20T08:10:34;94908.56;;;22.92;45.88
6851;BME280;3464;42.728;23.296;2023-04-20T08:24:03;94918.15;;;19.65;49.75
6851;BME280;3464;42.728;23.296;2023-04-20T08:26:30;94916.00;;;19.92;49.96
6851;BME280;3464;42.728;23.296;2023-04-20T08:29:08;94919.71;;;19.56;49.91
6851;BME280;3464;42.728;23.296;2023-04-20T08:31:35;94926.91;;;19.16;50.82
6851;BME280;3464;42.728;23.296;2023-04-20T08:34:03;94922.20;;;19.03;51.08
6851;BME280;3464;42.728;23.296;2023-04-20T08:36:32;94925.27;;;18.85;51.73
6851;BME280;3464;42.728;23.296;2023-04-20T08:39:07;94924.16;;;19.77;50.92
6851;BME280;3464;42.728;23.296;2023-04-20T08:41:33;94923.14;;;19.95;50.70
6851;BME280;3464;42.728;23.296;2023-04-20T08:44:01;94917.47;;;19.86;49.95
6851;BME280;3464;42.728;23.296;2023-04-20T08:46:29;94929.38;;;19.34;50.52
6851;BME280;3464;42.728;23.296;2023-04-20T08:48:59;94925.72;;;19.13;51.65
6851;BME280;3464;42.728;23.296;2023-04-20T08:51:33;94920.30;;;18.95;51.55
6851;BME280;3464;42.728;23.296;2023-04-20T08:54:05;94933.38;;;18.84;51.90
6851;BME280;3464;42.728;23.296;2023-04-20T08:56:40;94930.85;;;19.26;51.65
6851;BME280;3464;42.728;23.296;2023-04-20T08:59:09;94928.69;;;19.82;50.85
6851;BME280;3464;42.728;23.296;2023-04-20T09:01:36;94926.65;;;19.92;50.61
6851;BME280;3464;42.728;23.296;2023-04-20T09:06:43;94919.98;;;19.87;50.28
6851;BME280;3464;42.728;23.296;2023-04-20T09:09:32;94928.31;;;19.67;50.66
6851;BME280;3464;42.728;23.296;2023-04-20T09:21:50;94922.62;;;21.62;47.03
6851;BME280;3464;42.728;23.296;2023-04-20T09:24:21;94902.75;;;22.50;45.76
6851;BME280;3464;42.728;23.296;2023-04-20T09:29:54;94903.66;;;23.06;44.03
6851;BME280;3464;42.728;23.296;2023-04-20T09:32:39;94899.30;;;23.80;43.51
6851;BME280;3464;42.728;23.296;2023-04-20T09:38:14;94898.52;;;24.05;43.16
6851;BME280;3464;42.728;23.296;2023-04-20T09:40:41;94898.12;;;24.47;42.00
6851;BME280;3464;42.728;23.296;2023-04-20T09:43:09;94892.31;;;24.68;41.85
6851;BME280;3464;42.728;23.296;2023-04-20T09:45:38;94891.08;;;22.91;43.73
6851;BME280;3464;42.728;23.296;2023-04-20T09:48:05;94895.16;;;23.60;43.51
6851;BME280;3464;42.728;23.296;2023-04-20T09:50:34;94897.13;;;22.71;44.58
6851;BME280;3464;42.728;23.296;2023-04-20T09:53:03;94895.77;;;22.53;43.39
6851;BME280;3464;42.728;23.296;2023-04-20T09:55:30;94893.67;;;23.09;43.26
6851;BME280;3464;42.728;23.296;2023-04-20T09:57:56;94892.70;;;23.67;43.88
6851;BME280;3464;42.728;23.296;2023-04-20T10:00:24;94879.81;;;23.58;42.67
6851;BME280;3464;42.728;23.296;2023-04-20T10:02:51;94889.22;;;23.93;42.25
6851;BME280;3464;42.728;23.296;2023-04-20T10:05:18;94882.84;;;23.31;43.40
6851;BME280;3464;42.728;23.296;2023-04-20T10:07:44;94873.88;;;22.65;43.88
6851;BME280;3464;42.728;23.296;2023-04-20T10:10:12;94879.16;;;22.12;44.37
6851;BME280;3464;42.728;23.296;2023-04-20T10:12:53;94870.56;;;22.03;44.48
6851;BME280;3464;42.728;23.296;2023-04-20T10:15:21;94875.45;;;21.56;45.68
6851;BME280;3464;42.728;23.296;2023-04-20T10:17:48;94870.39;;;21.44;45.10
6851;BME280;3464;42.728;23.296;2023-04-20T10:20:25;94878.21;;;21.62;45.12
6851;BME280;3464;42.728;23.296;2023-04-20T10:22:51;94867.89;;;21.75;45.06
6851;BME280;3464;42.728;23.296;2023-04-20T10:25:22;94868.03;;;21.60;45.49
6851;BME280;3464;42.728;23.296;2023-04-20T10:27:54;94866.13;;;22.26;45.10
6851;BME280;3464;42.728;23.296;2023-04-20T10:30:22;94870.14;;;21.82;45.68
6851;BME280;3464;42.728;23.296;2023-04-20T10:32:48;94865.33;;;20.88;45.81
6851;BME280;3464;42.728;23.296;2023-04-20T10:35:14;94867.53;;;20.03;47.77
6851;BME280;3464;42.728;23.296;2023-04-20T10:37:49;94861.09;;;19.79;48.44
6851;BME280;3464;42.728;23.296;2023-04-20T10:40:15;94862.78;;;20.87;47.12
6851;BME280;3464;42.728;23.296;2023-04-20T10:42:42;94871.67;;;20.89;47.04
6851;BME280;3464;42.728;23.296;2023-04-20T10:48:05;94856.30;;;21.55;46.11
6851;BME280;3464;42.728;23.296;2023-04-20T10:50:31;94859.70;;;21.87;45.97
6851;BME280;3464;42.728;23.296;2023-04-20T10:53:18;94856.47;;;21.93;44.43
6851;BME280;3464;42.728;23.296;2023-04-20T10:55:46;94861.49;;;21.53;44.95
6851;BME280;3464;42.728;23.296;2023-04-20T10:58:20;94857.77;;;22.22;44.65
6851;BME280;3464;42.728;23.296;2023-04-20T11:01:00;94861.80;;;22.18;44.34
6851;BME280;3464;42.728;23.296;2023-04-20T11:03:27;94862.09;;;21.81;44.26
6851;BME280;3464;42.728;23.296;2023-04-20T11:05:54;94849.39;;;22.48;43.87
6851;BME280;3464;42.728;23.296;2023-04-20T11:08:22;94836.86;;;23.16;42.52
6851;BME280;3464;42.728;23.296;2023-04-20T11:10:53;94830.27;;;23.29;41.92
6851;BME280;3464;42.728;23.296;2023-04-20T11:13:20;94835.85;;;24.15;40.81
6851;BME280;3464;42.728;23.296;2023-04-20T11:15:47;94834.42;;;24.27;40.59
6851;BME280;3464;42.728;23.296;2023-04-20T11:18:15;94826.86;;;24.24;40.71
6851;BME280;3464;42.728;23.296;2023-04-20T11:20:49;94821.30;;;23.81;41.33
6851;BME280;3464;42.728;23.296;2023-04-20T11:23:15;94827.41;;;24.37;40.70
6851;BME280;3464;42.728;23.296;2023-04-20T11:25:51;94824.32;;;23.63;41.28
6851;BME280;3464;42.728;23.296;2023-04-20T11:28:17;94822.68;;;24.14;39.77
6851;BME280;3464;42.728;23.296;2023-04-20T11:30:44;94822.11;;;24.40;39.79
6851;BME280;3464;42.728;23.296;2023-04-20T11:33:12;94820.01;;;24.31;40.00
6851;BME280;3464;42.728;23.296;2023-04-20T11:35:41;94821.88;;;23.78;40.78
6851;BME280;3464;42.728;23.296;2023-04-20T11:38:10;94819.79;;;23.85;40.54
6851;BME280;3464;42.728;23.296;2023-04-20T11:40:38;94815.20;;;23.57;41.48
6851;BME280;3464;42.728;23.296;2023-04-20T11:43:05;94827.19;;;23.66;40.88
6851;BME280;3464;42.728;23.296;2023-04-20T11:45:32;94817.63;;;23.52;40.70
6851;BME280;3464;42.728;23.296;2023-04-20T11:47:58;94815.36;;;24.22;39.91
6851;BME280;3464;42.728;23.296;2023-04-20T11:50:25;94815.84;;;24.30;40.16
6851;BME280;3464;42.728;23.296;2023-04-20T11:52:52;94819.02;;;24.42;39.47
6851;BME280;3464;42.728;23.296;2023-04-20T11:55:19;94819.14;;;24.24;39.92
6851;BME280;3464;42.728;23.296;2023-04-20T11:57:46;94830.73;;;22.82;41.38
6851;BME280;3464;42.728;23.296;2023-04-20T12:00:13;94833.55;;;20.60;44.93
6851;BME280;3464;42.728;23.296;2023-04-20T12:02:40;94822.12;;;20.46;46.02
6851;BME280;3464;42.728;23.296;2023-04-20T12:05:07;94827.98;;;20.95;45.98
6851;BME280;3464;42.728;23.296;2023-04-20T12:07:34;94830.20;;;21.46;45.79
6851;BME280;3464;42.728;23.296;2023-04-20T12:10:01;94829.50;;;21.74;44.98
6851;BME280;3464;42.728;23.296;2023-04-20T12:12:28;94829.21;;;20.84;47.19
6851;BME280;3464;42.728;23.296;2023-04-20T12:14:54;94834.72;;;19.78;49.32
6851;BME280;3464;42.728;23.296;2023-04-20T12:20:15;94833.22;;;20.10;49.44
6851;BME280;3464;42.728;23.296;2023-04-20T12:22:42;94832.73;;;20.11;49.31
6851;BME280;3464;42.728;23.296;2023-04-20T12:25:09;94835.97;;;20.86;47.56
6851;BME280;3464;42.728;23.296;2023-04-20T12:27:35;94833.15;;;21.57;45.71
6851;BME280;3464;42.728;23.296;2023-04-20T12:30:02;94825.51;;;22.27;45.08
6851;BME280;3464;42.728;23.296;2023-04-20T12:32:29;94817.97;;;22.81;44.19
6851;BME280;3464;42.728;23.296;2023-04-20T12:34:57;94812.38;;;23.00;43.01
6851;BME280;3464;42.728;23.296;2023-04-20T12:37:25;94808.38;;;22.28;44.39
6851;BME280;3464;42.728;23.296;2023-04-20T12:39:52;94814.62;;;22.12;43.97
6851;BME280;3464;42.728;23.296;2023-04-20T12:42:19;94811.36;;;21.48;44.24
6851;BME280;3464;42.728;23.296;2023-04-20T12:47:53;94812.34;;;21.95;44.03
6851;BME280;3464;42.728;23.296;2023-04-20T12:50:21;94808.36;;;21.38;44.61
6851;BME280;3464;42.728;23.296;2023-04-20T12:52:47;94804.84;;;21.61;44.65
6851;BME280;3464;42.728;23.296;2023-04-20T12:55:15;94805.27;;;21.30;44.94
6851;BME280;3464;42.728;23.296;2023-04-20T12:57:43;94809.31;;;21.03;45.64
6851;BME280;3464;42.728;23.296;2023-04-20T13:00:11;94800.99;;;21.61;44.66
6851;BME280;3464;42.728;23.296;2023-04-20T13:02:38;94806.91;;;21.62;45.73
6851;BME280;3464;42.728;23.296;2023-04-20T13:18:12;94811.14;;;20.55;48.28
6851;BME280;3464;42.728;23.296;2023-04-20T13:20:40;94811.59;;;20.07;49.47
6851;BME280;3464;42.728;23.296;2023-04-20T13:23:09;94809.30;;;20.12;48.76
6851;BME280;3464;42.728;23.296;2023-04-20T13:25:37;94809.69;;;20.48;47.95
6851;BME280;3464;42.728;23.296;2023-04-20T13:28:04;94811.41;;;20.48;47.86
6851;BME280;3464;42.728;23.296;2023-04-20T13:30:33;94813.52;;;20.93;47.52
6851;BME280;3464;42.728;23.296;2023-04-20T13:33:01;94810.67;;;21.23;46.78
6851;BME280;3464;42.728;23.296;2023-04-20T13:35:31;94819.95;;;20.92;48.42
6851;BME280;3464;42.728;23.296;2023-04-20T13:37:58;94818.04;;;20.75;47.54
6851;BME280;3464;42.728;23.296;2023-04-20T13:40:27;94812.34;;;20.68;48.20
6851;BME280;3464;42.728;23.296;2023-04-20T13:42:58;94814.72;;;20.39;48.46
6851;BME280;3464;42.728;23.296;2023-04-20T13:45:25;94818.67;;;20.70;47.79
6851;BME280;3464;42.728;23.296;2023-04-20T13:47:55;94809.45;;;20.66;46.18
6851;BME280;3464;42.728;23.296;2023-04-20T13:50:23;94807.53;;;20.72;46.29
6851;BME280;3464;42.728;23.296;2023-04-20T13:52:51;94809.95;;;20.98;45.71
6851;BME280;3464;42.728;23.296;2023-04-20T13:55:17;94805.78;;;21.06;46.27
6851;BME280;3464;42.728;23.296;2023-04-20T13:57:45;94806.75;;;21.15;46.52
6851;BME280;3464;42.728;23.296;2023-04-20T14:00:11;94804.58;;;19.24;50.75
6851;BME280;3464;42.728;23.296;2023-04-20T14:02:39;94808.89;;;19.50;50.46
6851;BME280;3464;42.728;23.296;2023-04-20T14:05:06;94815.92;;;19.55;50.40
6851;BME280;3464;42.728;23.296;2023-04-20T14:07:33;94815.09;;;19.92;49.94
6851;BME280;3464;42.728;23.296;2023-04-20T14:09:59;94814.88;;;19.62;50.50
6851;BME280;3464;42.728;23.296;2023-04-20T14:12:26;94808.54;;;19.85;50.03
6851;BME280;3464;42.728;23.296;2023-04-20T14:14:55;94810.72;;;20.32;49.89
6851;BME280;3464;42.728;23.296;2023-04-20T14:17:19;94813.16;;;20.80;49.08
6851;BME280;3464;42.728;23.296;2023-04-20T14:19:45;94819.34;;;20.86;49.00
6851;BME280;3464;42.728;23.296;2023-04-20T14:22:12;94823.03;;;20.79;48.26
6851;BME280;3464;42.728;23.296;2023-04-20T14:24:39;94829.83;;;20.57;49.04
6851;BME280;3464;42.728;23.296;2023-04-20T14:27:05;94825.63;;;20.20;49.55
6851;BME280;3464;42.728;23.296;2023-04-20T14:29:33;94825.83;;;19.77;49.92
6851;BME280;3464;42.728;23.296;2023-04-20T14:32:00;94828.86;;;19.23;50.93
6851;BME280;3464;42.728;23.296;2023-04-20T14:34:26;94831.16;;;18.91;51.62
6851;BME280;3464;42.728;23.296;2023-04-20T14:36:53;94827.57;;;18.97;51.63
6851;BME280;3464;42.728;23.296;2023-04-20T14:39:20;94824.80;;;18.76;51.09
6851;BME280;3464;42.728;23.296;2023-04-20T14:41:46;94820.13;;;19.17;50.79
6851;BME280;3464;42.728;23.296;2023-04-20T14:44:13;94822.75;;;19.30;50.71
6851;BME280;3464;42.728;23.296;2023-04-20T14:46:39;94818.14;;;19.25;51.00
6851;BME280;3464;42.728;23.296;2023-04-20T14:49:06;94820.72;;;18.98;51.72
6851;BME280;3464;42.728;23.296;2023-04-20T14:51:33;94821.92;;;18.73;52.35
6851;BME280;3464;42.728;23.296;2023-04-20T14:54:00;94822.24;;;19.18;51.49
6851;BME280;3464;42.728;23.296;2023-04-20T14:56:26;94826.16;;;18.73;52.92
6851;BME280;3464;42.728;23.296;2023-04-20T14:58:54;94822.36;;;18.86;52.88
6851;BME280;3464;42.728;23.296;2023-04-20T15:01:21;94826.33;;;18.82;53.24
6851;BME280;3464;42.728;23.296;2023-04-20T15:03:47;94826.13;;;18.74;53.29
6851;BME280;3464;42.728;23.296;2023-04-20T15:06:14;94828.98;;;18.64;53.69
6851;BME280;3464;42.728;23.296;2023-04-20T15:08:40;94827.08;;;18.43;54.51